sensor_id;sensor_type;location;lat;lon;timestamp;P1;durP1;ratioP1;P2;durP2;ratioP2
41139;SDS011;26881;48.784;9.192;2023-10-31T00:01:41;0.68;;;0.50;;
41139;SDS011;26881;48.784;9.192;2023-10-31T00:07:03;0.75;;;0.60;;
41139;SDS011;26881;48.784;9.192;2023-10-31T00:12:25;3.72;;;0.40;;
41139;SDS011;26881;48.784;9.192;2023-10-31T00:17:47;0.60;;;0.60;;
41139;SDS011;26881;48.784;9.192;2023-10-31T00:23:09;1.88;;;0.60;;
41139;SDS011;26881;48.784;9.192;2023-10-31T00:28:31;0.40;;;0.40;;
41139;SDS011;26881;48.784;9.192;2023-10-31T00:33:53;1.77;;;0.93;;
41139;SDS011;26881;48.784;9.192;2023-10-31T00:39:15;4.15;;;0.60;;
41139;SDS011;26881;48.784;9.192;2023-10-31T00:44:37;0.45;;;0.45;;
41139;SDS011;26881;48.784;9.192;2023-10-31T00:49:59;0.65;;;0.50;;
41139;SDS011;26881;48.784;9.192;2023-10-31T00:55:21;0.47;;;0.47;;
41139;SDS011;26881;48.784;9.192;2023-10-31T01:00:43;0.40;;;0.40;;
41139;SDS011;26881;48.784;9.192;2023-10-31T01:06:05;1.38;;;0.40;;
41139;SDS011;26881;48.784;9.192;2023-10-31T01:11:27;1.00;;;0.50;;
41139;SDS011;26881;48.784;9.192;2023-10-31T01:16:48;0.73;;;0.50;;
41139;SDS011;26881;48.784;9.192;2023-10-31T01:22:10;0.60;;;0.50;;
41139;SDS011;26881;48.784;9.192;2023-10-31T01:27:33;0.40;;;0.40;;
41139;SDS011;26881;48.784;9.192;2023-10-31T01:32:55;1.50;;;0.50;;
41139;SDS011;26881;48.784;9.192;2023-10-31T01:38:17;1.05;;;0.82;;
41139;SDS011;26881;48.784;9.192;2023-10-31T01:43:39;1.13;;;0.60;;
41139;SDS011;26881;48.784;9.192;2023-10-31T01:49:01;1.83;;;0.55;;
41139;SDS011;26881;48.784;9.192;2023-10-31T01:54:23;0.98;;;0.60;;
41139;SDS011;26881;48.784;9.192;2023-10-31T01:59:44;1.43;;;0.60;;
41139;SDS011;26881;48.784;9.192;2023-10-31T02:05:06;0.60;;;0.50;;
41139;SDS011;26881;48.784;9.192;2023-10-31T02:10:28;4.00;;;0.75;;
41139;SDS011;26881;48.784;9.192;2023-10-31T02:15:50;2.00;;;0.52;;
41139;SDS011;26881;48.784;9.192;2023-10-31T02:21:12;2.90;;;0.50;;
41139;SDS011;26881;48.784;9.192;2023-10-31T02:26:34;1.95;;;0.60;;
41139;SDS011;26881;48.784;9.192;2023-10-31T02:31:56;1.98;;;0.68;;
41139;SDS011;26881;48.784;9.192;2023-10-31T02:37:18;2.30;;;0.70;;
41139;SDS011;26881;48.784;9.192;2023-10-31T02:42:40;0.70;;;0.50;;
41139;SDS011;26881;48.784;9.192;2023-10-31T02:48:02;0.95;;;0.70;;
41139;SDS011;26881;48.784;9.192;2023-10-31T02:53:24;1.67;;;0.57;;
41139;SDS011;26881;48.784;9.192;2023-10-31T02:58:46;0.68;;;0.60;;
41139;SDS011;26881;48.784;9.192;2023-10-31T03:04:08;1.70;;;0.77;;
41139;SDS011;26881;48.784;9.192;2023-10-31T03:09:30;0.50;;;0.50;;
41139;SDS011;26881;48.784;9.192;2023-10-31T03:14:51;1.10;;;0.60;;
41139;SDS011;26881;48.784;9.192;2023-10-31T03:20:14;1.67;;;0.70;;
41139;SDS011;26881;48.784;9.192;2023-10-31T03:25:36;3.90;;;0.90;;
41139;SDS011;26881;48.784;9.192;2023-10-31T03:30:57;4.88;;;0.70;;
41139;SDS011;26881;48.784;9.192;2023-10-31T03:36:19;1.80;;;0.70;;
41139;SDS011;26881;48.784;9.192;2023-10-31T03:41:41;2.53;;;0.57;;
41139;SDS011;26881;48.784;9.192;2023-10-31T03:47:04;2.92;;;0.60;;
41139;SDS011;26881;48.784;9.192;2023-10-31T03:52:26;2.30;;;0.80;;
41139;SDS011;26881;48.784;9.192;2023-10-31T03:57:47;1.00;;;0.88;;
41139;SDS011;26881;48.784;9.192;2023-10-31T04:03:09;1.23;;;0.85;;
41139;SDS011;26881;48.784;9.192;2023-10-31T04:08:31;0.70;;;0.70;;
41139;SDS011;26881;48.784;9.192;2023-10-31T04:13:53;1.58;;;0.82;;
41139;SDS011;26881;48.784;9.192;2023-10-31T04:19:15;1.83;;;0.68;;
41139;SDS011;26881;48.784;9.192;2023-10-31T04:24:37;2.93;;;0.90;;
41139;SDS011;26881;48.784;9.192;2023-10-31T04:29:59;0.65;;;0.63;;
41139;SDS011;26881;48.784;9.192;2023-10-31T04:35:21;4.25;;;0.55;;
41139;SDS011;26881;48.784;9.192;2023-10-31T04:40:43;0.95;;;0.60;;
41139;SDS011;26881;48.784;9.192;2023-10-31T04:46:05;2.93;;;0.90;;
41139;SDS011;26881;48.784;9.192;2023-10-31T04:51:26;1.42;;;0.68;;
41139;SDS011;26881;48.784;9.192;2023-10-31T04:56:49;1.35;;;0.50;;
41139;SDS011;26881;48.784;9.192;2023-10-31T05:02:11;0.60;;;0.60;;
41139;SDS011;26881;48.784;9.192;2023-10-31T05:07:33;3.15;;;0.63;;
41139;SDS011;26881;48.784;9.192;2023-10-31T05:12:55;1.25;;;0.57;;
41139;SDS011;26881;48.784;9.192;2023-10-31T05:18:17;2.03;;;0.70;;
41139;SDS011;26881;48.784;9.192;2023-10-31T05:29:30;1.70;;;0.77;;
41139;SDS011;26881;48.784;9.192;2023-10-31T05:34:53;3.60;;;0.70;;
41139;SDS011;26881;48.784;9.192;2023-10-31T05:40:15;2.00;;;0.90;;
41139;SDS011;26881;48.784;9.192;2023-10-31T05:45:37;1.80;;;0.90;;
41139;SDS011;26881;48.784;9.192;2023-10-31T05:50:59;1.07;;;0.67;;
41139;SDS011;26881;48.784;9.192;2023-10-31T05:56:21;1.50;;;0.63;;
41139;SDS011;26881;48.784;9.192;2023-10-31T06:01:43;1.93;;;0.73;;
41139;SDS011;26881;48.784;9.192;2023-10-31T06:07:05;2.40;;;0.60;;
41139;SDS011;26881;48.784;9.192;2023-10-31T06:12:28;0.38;;;0.38;;
41139;SDS011;26881;48.784;9.192;2023-10-31T06:17:50;0.45;;;0.35;;
41139;SDS011;26881;48.784;9.192;2023-10-31T06:23:12;0.50;;;0.50;;
41139;SDS011;26881;48.784;9.192;2023-10-31T06:28:33;0.70;;;0.70;;
41139;SDS011;26881;48.784;9.192;2023-10-31T06:34:03;1.50;;;0.82;;
41139;SDS011;26881;48.784;9.192;2023-10-31T06:39:25;3.47;;;0.47;;
41139;SDS011;26881;48.784;9.192;2023-10-31T06:44:47;1.97;;;0.73;;
41139;SDS011;26881;48.784;9.192;2023-10-31T06:50:09;0.70;;;0.57;;
41139;SDS011;26881;48.784;9.192;2023-10-31T06:55:31;0.53;;;0.50;;
41139;SDS011;26881;48.784;9.192;2023-10-31T07:00:53;0.98;;;0.73;;
41139;SDS011;26881;48.784;9.192;2023-10-31T07:06:21;0.98;;;0.77;;
41139;SDS011;26881;48.784;9.192;2023-10-31T07:11:43;0.63;;;0.63;;
41139;SDS011;26881;48.784;9.192;2023-10-31T07:17:04;1.17;;;0.60;;
41139;SDS011;26881;48.784;9.192;2023-10-31T07:22:26;4.82;;;0.80;;
41139;SDS011;26881;48.784;9.192;2023-10-31T07:27:48;1.40;;;0.75;;
41139;SDS011;26881;48.784;9.192;2023-10-31T07:33:10;3.75;;;0.77;;
41139;SDS011;26881;48.784;9.192;2023-10-31T07:38:32;2.83;;;0.65;;
41139;SDS011;26881;48.784;9.192;2023-10-31T07:43:55;0.73;;;0.73;;
41139;SDS011;26881;48.784;9.192;2023-10-31T07:49:17;1.35;;;0.70;;
41139;SDS011;26881;48.784;9.192;2023-10-31T07:54:39;2.15;;;0.50;;
41139;SDS011;26881;48.784;9.192;2023-10-31T08:00:02;1.85;;;0.70;;
41139;SDS011;26881;48.784;9.192;2023-10-31T08:05:24;2.17;;;0.70;;
41139;SDS011;26881;48.784;9.192;2023-10-31T08:10:46;2.03;;;0.60;;
41139;SDS011;26881;48.784;9.192;2023-10-31T08:16:08;2.97;;;0.70;;
41139;SDS011;26881;48.784;9.192;2023-10-31T08:21:30;2.75;;;0.73;;
41139;SDS011;26881;48.784;9.192;2023-10-31T08:26:56;7.45;;;1.20;;
41139;SDS011;26881;48.784;9.192;2023-10-31T08:32:18;1.25;;;0.63;;
41139;SDS011;26881;48.784;9.192;2023-10-31T08:37:40;4.10;;;0.90;;
41139;SDS011;26881;48.784;9.192;2023-10-31T08:43:02;3.58;;;0.85;;
41139;SDS011;26881;48.784;9.192;2023-10-31T08:48:26;1.88;;;0.90;;
41139;SDS011;26881;48.784;9.192;2023-10-31T08:53:48;6.22;;;0.88;;
41139;SDS011;26881;48.784;9.192;2023-10-31T08:59:09;5.97;;;1.00;;
41139;SDS011;26881;48.784;9.192;2023-10-31T09:04:31;12.90;;;1.45;;
41139;SDS011;26881;48.784;9.192;2023-10-31T09:09:53;2.60;;;0.90;;
41139;SDS011;26881;48.784;9.192;2023-10-31T09:15:15;2.33;;;0.85;;
41139;SDS011;26881;48.784;9.192;2023-10-31T09:20:37;3.47;;;0.70;;
41139;SDS011;26881;48.784;9.192;2023-10-31T09:25:59;2.65;;;0.80;;
41139;SDS011;26881;48.784;9.192;2023-10-31T09:31:21;7.28;;;1.00;;
41139;SDS011;26881;48.784;9.192;2023-10-31T09:36:43;4.85;;;1.00;;
41139;SDS011;26881;48.784;9.192;2023-10-31T09:42:07;1.42;;;0.77;;
41139;SDS011;26881;48.784;9.192;2023-10-31T09:47:30;6.88;;;1.13;;
41139;SDS011;26881;48.784;9.192;2023-10-31T09:52:52;6.43;;;0.90;;
41139;SDS011;26881;48.784;9.192;2023-10-31T09:58:14;2.10;;;1.10;;
41139;SDS011;26881;48.784;9.192;2023-10-31T10:03:36;6.15;;;1.17;;
41139;SDS011;26881;48.784;9.192;2023-10-31T10:09:00;7.70;;;1.05;;
41139;SDS011;26881;48.784;9.192;2023-10-31T10:14:27;1.88;;;0.93;;
41139;SDS011;26881;48.784;9.192;2023-10-31T10:20:04;1.33;;;0.90;;
41139;SDS011;26881;48.784;9.192;2023-10-31T10:25:29;2.88;;;1.15;;
41139;SDS011;26881;48.784;9.192;2023-10-31T10:31:03;6.32;;;1.38;;
41139;SDS011;26881;48.784;9.192;2023-10-31T10:36:27;4.95;;;1.10;;
41139;SDS011;26881;48.784;9.192;2023-10-31T10:41:55;2.92;;;0.90;;
41139;SDS011;26881;48.784;9.192;2023-10-31T10:47:19;2.30;;;0.93;;
41139;SDS011;26881;48.784;9.192;2023-10-31T10:52:48;3.75;;;1.13;;
41139;SDS011;26881;48.784;9.192;2023-10-31T10:58:13;1.60;;;1.00;;
41139;SDS011;26881;48.784;9.192;2023-10-31T11:03:44;2.97;;;1.20;;
41139;SDS011;26881;48.784;9.192;2023-10-31T11:09:07;3.13;;;1.02;;
41139;SDS011;26881;48.784;9.192;2023-10-31T11:14:31;3.53;;;1.02;;
41139;SDS011;26881;48.784;9.192;2023-10-31T11:19:54;1.75;;;1.10;;
41139;SDS011;26881;48.784;9.192;2023-10-31T11:25:18;6.70;;;1.48;;
41139;SDS011;26881;48.784;9.192;2023-10-31T11:30:53;3.70;;;1.00;;
41139;SDS011;26881;48.784;9.192;2023-10-31T11:36:20;3.70;;;0.98;;
41139;SDS011;26881;48.784;9.192;2023-10-31T11:41:50;4.93;;;1.17;;
41139;SDS011;26881;48.784;9.192;2023-10-31T11:47:15;3.40;;;1.10;;
41139;SDS011;26881;48.784;9.192;2023-10-31T11:52:38;2.25;;;1.08;;
41139;SDS011;26881;48.784;9.192;2023-10-31T11:58:16;3.00;;;1.20;;
41139;SDS011;26881;48.784;9.192;2023-10-31T12:03:47;2.70;;;1.10;;
41139;SDS011;26881;48.784;9.192;2023-10-31T12:09:10;3.53;;;1.20;;
41139;SDS011;26881;48.784;9.192;2023-10-31T12:14:31;4.50;;;1.30;;
41139;SDS011;26881;48.784;9.192;2023-10-31T12:19:54;4.05;;;1.17;;
41139;SDS011;26881;48.784;9.192;2023-10-31T12:25:16;2.92;;;1.20;;
41139;SDS011;26881;48.784;9.192;2023-10-31T12:30:43;3.13;;;0.98;;
41139;SDS011;26881;48.784;9.192;2023-10-31T12:36:07;1.98;;;1.10;;
41139;SDS011;26881;48.784;9.192;2023-10-31T12:41:29;2.47;;;0.93;;
41139;SDS011;26881;48.784;9.192;2023-10-31T12:46:51;1.75;;;0.88;;
41139;SDS011;26881;48.784;9.192;2023-10-31T12:52:14;3.15;;;0.70;;
41139;SDS011;26881;48.784;9.192;2023-10-31T12:57:36;4.72;;;0.90;;
41139;SDS011;26881;48.784;9.192;2023-10-31T13:03:08;4.88;;;1.05;;
41139;SDS011;26881;48.784;9.192;2023-10-31T13:08:33;2.80;;;1.00;;
41139;SDS011;26881;48.784;9.192;2023-10-31T13:13:56;2.00;;;0.63;;
41139;SDS011;26881;48.784;9.192;2023-10-31T13:19:18;1.65;;;0.82;;
41139;SDS011;26881;48.784;9.192;2023-10-31T13:24:40;4.95;;;1.00;;
41139;SDS011;26881;48.784;9.192;2023-10-31T13:30:03;2.70;;;0.75;;
41139;SDS011;26881;48.784;9.192;2023-10-31T13:35:25;1.35;;;0.73;;
41139;SDS011;26881;48.784;9.192;2023-10-31T13:40:47;1.80;;;0.73;;
41139;SDS011;26881;48.784;9.192;2023-10-31T13:46:10;0.98;;;0.90;;
41139;SDS011;26881;48.784;9.192;2023-10-31T13:51:32;1.10;;;0.80;;
41139;SDS011;26881;48.784;9.192;2023-10-31T13:56:54;2.17;;;0.90;;
41139;SDS011;26881;48.784;9.192;2023-10-31T14:02:16;5.20;;;0.80;;
41139;SDS011;26881;48.784;9.192;2023-10-31T14:07:39;1.45;;;0.70;;
41139;SDS011;26881;48.784;9.192;2023-10-31T14:13:01;2.30;;;0.70;;
41139;SDS011;26881;48.784;9.192;2023-10-31T14:18:23;1.65;;;0.68;;
41139;SDS011;26881;48.784;9.192;2023-10-31T14:23:45;1.52;;;0.70;;
41139;SDS011;26881;48.784;9.192;2023-10-31T14:29:18;1.15;;;0.60;;
41139;SDS011;26881;48.784;9.192;2023-10-31T14:34:39;1.30;;;0.68;;
41139;SDS011;26881;48.784;9.192;2023-10-31T14:40:01;1.73;;;1.00;;
41139;SDS011;26881;48.784;9.192;2023-10-31T14:45:25;1.17;;;0.90;;
41139;SDS011;26881;48.784;9.192;2023-10-31T14:50:47;1.17;;;0.63;;
41139;SDS011;26881;48.784;9.192;2023-10-31T14:56:09;2.90;;;0.85;;
41139;SDS011;26881;48.784;9.192;2023-10-31T15:01:32;1.02;;;0.95;;
41139;SDS011;26881;48.784;9.192;2023-10-31T15:06:54;0.98;;;0.90;;
41139;SDS011;26881;48.784;9.192;2023-10-31T15:12:16;1.70;;;0.52;;
41139;SDS011;26881;48.784;9.192;2023-10-31T15:17:38;2.05;;;0.85;;
41139;SDS011;26881;48.784;9.192;2023-10-31T15:23:00;1.20;;;0.70;;
41139;SDS011;26881;48.784;9.192;2023-10-31T15:28:22;1.00;;;0.70;;
41139;SDS011;26881;48.784;9.192;2023-10-31T15:33:46;2.22;;;0.88;;
41139;SDS011;26881;48.784;9.192;2023-10-31T15:39:08;0.95;;;0.85;;
41139;SDS011;26881;48.784;9.192;2023-10-31T15:44:32;2.10;;;1.02;;
41139;SDS011;26881;48.784;9.192;2023-10-31T15:49:55;5.45;;;1.10;;
41139;SDS011;26881;48.784;9.192;2023-10-31T15:55:17;2.53;;;1.23;;
41139;SDS011;26881;48.784;9.192;2023-10-31T16:00:39;2.55;;;1.05;;
41139;SDS011;26881;48.784;9.192;2023-10-31T16:06:01;2.00;;;1.45;;
41139;SDS011;26881;48.784;9.192;2023-10-31T16:11:23;2.80;;;1.48;;
41139;SDS011;26881;48.784;9.192;2023-10-31T16:16:45;4.18;;;1.00;;
41139;SDS011;26881;48.784;9.192;2023-10-31T16:22:07;2.38;;;0.90;;
41139;SDS011;26881;48.784;9.192;2023-10-31T16:27:29;2.05;;;0.90;;
41139;SDS011;26881;48.784;9.192;2023-10-31T16:32:51;3.33;;;1.35;;
41139;SDS011;26881;48.784;9.192;2023-10-31T16:38:13;1.42;;;0.73;;
41139;SDS011;26881;48.784;9.192;2023-10-31T16:43:35;1.58;;;1.02;;
41139;SDS011;26881;48.784;9.192;2023-10-31T16:48:57;1.27;;;0.80;;
41139;SDS011;26881;48.784;9.192;2023-10-31T16:54:19;1.48;;;1.05;;
41139;SDS011;26881;48.784;9.192;2023-10-31T16:59:41;1.40;;;0.93;;
41139;SDS011;26881;48.784;9.192;2023-10-31T17:05:03;6.78;;;1.75;;
41139;SDS011;26881;48.784;9.192;2023-10-31T17:10:25;1.23;;;1.00;;
41139;SDS011;26881;48.784;9.192;2023-10-31T17:15:47;1.95;;;1.20;;
41139;SDS011;26881;48.784;9.192;2023-10-31T17:21:09;1.55;;;1.45;;
41139;SDS011;26881;48.784;9.192;2023-10-31T17:26:31;1.55;;;1.25;;
41139;SDS011;26881;48.784;9.192;2023-10-31T17:31:53;3.30;;;1.08;;
41139;SDS011;26881;48.784;9.192;2023-10-31T17:37:15;1.77;;;1.08;;
41139;SDS011;26881;48.784;9.192;2023-10-31T17:42:37;3.08;;;1.23;;
41139;SDS011;26881;48.784;9.192;2023-10-31T17:47:59;2.65;;;1.25;;
41139;SDS011;26881;48.784;9.192;2023-10-31T17:53:21;1.73;;;1.45;;
41139;SDS011;26881;48.784;9.192;2023-10-31T17:58:43;2.65;;;2.20;;
41139;SDS011;26881;48.784;9.192;2023-10-31T18:04:05;2.83;;;1.65;;
41139;SDS011;26881;48.784;9.192;2023-10-31T18:09:27;3.33;;;1.75;;
41139;SDS011;26881;48.784;9.192;2023-10-31T18:14:49;1.30;;;1.20;;
41139;SDS011;26881;48.784;9.192;2023-10-31T18:20:11;1.92;;;1.40;;
41139;SDS011;26881;48.784;9.192;2023-10-31T18:25:33;3.30;;;1.30;;
41139;SDS011;26881;48.784;9.192;2023-10-31T18:30:55;1.00;;;0.90;;
41139;SDS011;26881;48.784;9.192;2023-10-31T18:36:17;3.65;;;0.88;;
41139;SDS011;26881;48.784;9.192;2023-10-31T18:41:51;2.58;;;1.15;;
41139;SDS011;26881;48.784;9.192;2023-10-31T18:47:27;1.52;;;1.10;;
41139;SDS011;26881;48.784;9.192;2023-10-31T18:52:50;1.80;;;1.20;;
41139;SDS011;26881;48.784;9.192;2023-10-31T18:58:12;2.17;;;1.63;;
41139;SDS011;26881;48.784;9.192;2023-10-31T19:03:34;1.25;;;1.20;;
41139;SDS011;26881;48.784;9.192;2023-10-31T19:08:56;1.40;;;1.30;;
41139;SDS011;26881;48.784;9.192;2023-10-31T19:14:18;3.83;;;1.35;;
41139;SDS011;26881;48.784;9.192;2023-10-31T19:19:40;3.40;;;1.20;;
41139;SDS011;26881;48.784;9.192;2023-10-31T19:25:02;3.65;;;1.38;;
41139;SDS011;26881;48.784;9.192;2023-10-31T19:30:24;1.65;;;1.33;;
41139;SDS011;26881;48.784;9.192;2023-10-31T19:35:46;0.98;;;0.95;;
41139;SDS011;26881;48.784;9.192;2023-10-31T19:41:08;1.87;;;0.90;;
41139;SDS011;26881;48.784;9.192;2023-10-31T19:46:30;1.65;;;1.23;;
41139;SDS011;26881;48.784;9.192;2023-10-31T19:51:52;1.77;;;1.20;;
41139;SDS011;26881;48.784;9.192;2023-10-31T19:57:14;2.17;;;1.60;;
41139;SDS011;26881;48.784;9.192;2023-10-31T20:02:38;1.50;;;1.17;;
41139;SDS011;26881;48.784;9.192;2023-10-31T20:08:03;2.53;;;1.50;;
41139;SDS011;26881;48.784;9.192;2023-10-31T20:13:25;1.65;;;1.55;;
41139;SDS011;26881;48.784;9.192;2023-10-31T20:18:47;1.70;;;1.60;;
41139;SDS011;26881;48.784;9.192;2023-10-31T20:24:10;2.40;;;1.38;;
41139;SDS011;26881;48.784;9.192;2023-10-31T20:29:31;2.40;;;1.30;;
41139;SDS011;26881;48.784;9.192;2023-10-31T20:34:53;1.65;;;1.13;;
41139;SDS011;26881;48.784;9.192;2023-10-31T20:40:16;1.90;;;1.27;;
41139;SDS011;26881;48.784;9.192;2023-10-31T20:45:38;1.90;;;1.30;;
41139;SDS011;26881;48.784;9.192;2023-10-31T20:51:00;1.40;;;1.30;;
41139;SDS011;26881;48.784;9.192;2023-10-31T20:56:22;2.17;;;1.30;;
41139;SDS011;26881;48.784;9.192;2023-10-31T21:01:44;1.02;;;0.80;;
41139;SDS011;26881;48.784;9.192;2023-10-31T21:07:06;1.88;;;1.23;;
41139;SDS011;26881;48.784;9.192;2023-10-31T21:12:29;1.40;;;1.05;;
41139;SDS011;26881;48.784;9.192;2023-10-31T21:17:56;2.85;;;1.20;;
41139;SDS011;26881;48.784;9.192;2023-10-31T21:23:19;1.45;;;1.35;;
41139;SDS011;26881;48.784;9.192;2023-10-31T21:28:40;1.47;;;1.27;;
41139;SDS011;26881;48.784;9.192;2023-10-31T21:34:02;2.38;;;1.30;;
41139;SDS011;26881;48.784;9.192;2023-10-31T21:39:24;1.55;;;0.90;;
41139;SDS011;26881;48.784;9.192;2023-10-31T21:44:46;1.55;;;1.10;;
41139;SDS011;26881;48.784;9.192;2023-10-31T21:50:08;1.67;;;1.20;;
41139;SDS011;26881;48.784;9.192;2023-10-31T21:55:30;3.97;;;1.35;;
41139;SDS011;26881;48.784;9.192;2023-10-31T22:00:52;5.00;;;1.55;;
41139;SDS011;26881;48.784;9.192;2023-10-31T22:06:14;1.52;;;1.30;;
41139;SDS011;26881;48.784;9.192;2023-10-31T22:11:36;2.35;;;1.33;;
41139;SDS011;26881;48.784;9.192;2023-10-31T22:16:58;2.03;;;1.23;;
41139;SDS011;26881;48.784;9.192;2023-10-31T22:22:20;2.80;;;1.50;;
41139;SDS011;26881;48.784;9.192;2023-10-31T22:27:42;1.33;;;1.23;;
41139;SDS011;26881;48.784;9.192;2023-10-31T22:33:04;3.28;;;1.75;;
41139;SDS011;26881;48.784;9.192;2023-10-31T22:38:26;3.67;;;1.40;;
41139;SDS011;26881;48.784;9.192;2023-10-31T22:43:48;5.20;;;1.00;;
41139;SDS011;26881;48.784;9.192;2023-10-31T22:49:10;2.80;;;1.33;;
41139;SDS011;26881;48.784;9.192;2023-10-31T22:54:31;1.95;;;1.00;;
41139;SDS011;26881;48.784;9.192;2023-10-31T22:59:53;3.72;;;1.08;;
41139;SDS011;26881;48.784;9.192;2023-10-31T23:05:15;1.52;;;1.15;;
41139;SDS011;26881;48.784;9.192;2023-10-31T23:10:38;2.33;;;1.20;;
41139;SDS011;26881;48.784;9.192;2023-10-31T23:16:00;2.38;;;1.23;;
41139;SDS011;26881;48.784;9.192;2023-10-31T23:21:21;1.88;;;1.55;;
41139;SDS011;26881;48.784;9.192;2023-10-31T23:26:44;3.22;;;1.60;;
41139;SDS011;26881;48.784;9.192;2023-10-31T23:32:06;3.25;;;1.20;;
41139;SDS011;26881;48.784;9.192;2023-10-31T23:37:28;0.88;;;0.85;;
41139;SDS011;26881;48.784;9.192;2023-10-31T23:42:50;2.95;;;1.20;;
41139;SDS011;26881;48.784;9.192;2023-10-31T23:48:12;2.38;;;1.00;;
41139;SDS011;26881;48.784;9.192;2023-10-31T23:53:34;4.50;;;1.35;;
41139;SDS011;26881;48.784;9.192;2023-10-31T23:58:56;4.40;;;1.40;;
